createdAt,value
2018-08-23T00:01:27.810Z,72.00
2018-08-23T00:04:11.682Z,71.90
2018-08-23T00:06:47.004Z,72.10
2018-08-23T00:09:14.957Z,72.60
2018-08-23T00:11:47.088Z,73.40
2018-08-23T00:14:15.952Z,73.10
2018-08-23T00:16:49.266Z,73.30
2018-08-23T00:19:17.637Z,73.40
2018-08-23T00:21:49.899Z,73.40
2018-08-23T00:24:19.101Z,73.50
2018-08-23T00:26:52.106Z,73.40
2018-08-23T00:29:25.067Z,73.30
2018-08-23T00:31:56.045Z,73.10
2018-08-23T00:34:27.383Z,73.10
2018-08-23T00:36:56.471Z,73.50
2018-08-23T00:39:24.835Z,74.30
2018-08-23T00:41:58.314Z,74.40
2018-08-23T00:44:26.304Z,74.50
2018-08-23T00:46:55.203Z,74.90
2018-08-23T00:49:27.566Z,74.90
2018-08-23T00:51:55.494Z,75.80
2018-08-23T00:54:24.688Z,76.10
2018-08-23T00:56:52.734Z,76.30
2018-08-23T00:59:20.627Z,77.40
2018-08-23T01:02:00.603Z,76.60
2018-08-23T01:04:29.814Z,77.20
2018-08-23T01:06:57.870Z,78.10
2018-08-23T01:09:25.763Z,78.10
2018-08-23T01:14:24.873Z,78.00
2018-08-23T01:17:08.746Z,77.90
2018-08-23T01:19:48.742Z,77.90
2018-08-23T01:22:16.696Z,78.00
2018-08-23T01:24:47.801Z,78.00
2018-08-23T01:27:23.127Z,78.80
2018-08-23T01:29:51.073Z,78.60
2018-08-23T01:32:35.154Z,78.50
2018-08-23T01:35:03.512Z,78.50
2018-08-23T01:37:41.909Z,79.20
2018-08-23T01:40:10.835Z,79.20
2018-08-23T01:42:39.844Z,79.60
2018-08-23T01:45:09.357Z,80.70
2018-08-23T01:47:43.115Z,81.30
2018-08-23T01:55:47.878Z,81.60
2018-08-23T01:58:21.194Z,81.40
2018-08-23T02:01:02.810Z,81.70
2018-08-23T02:03:30.738Z,82.20
2018-08-23T02:05:58.931Z,82.10
2018-08-23T02:08:26.838Z,82.40
2018-08-23T02:10:54.969Z,82.00
2018-08-23T02:13:27.600Z,82.20
2018-08-23T02:15:56.403Z,82.90
2018-08-23T02:18:24.262Z,83.40
2018-08-23T02:20:56.613Z,83.70
2018-08-23T02:23:24.517Z,83.80
2018-08-23T02:25:52.971Z,83.90
2018-08-23T02:28:20.860Z,84.30
2018-08-23T02:30:53.993Z,84.30
2018-08-23T02:33:22.156Z,83.60
2018-08-23T02:36:06.547Z,83.70
2018-08-23T02:38:35.366Z,85.00
2018-08-23T02:41:03.324Z,84.40
2018-08-23T02:43:31.179Z,84.90
2018-08-23T02:46:01.512Z,84.80
2018-08-23T02:48:30.179Z,84.70
2018-08-23T02:50:58.084Z,84.40
2018-08-23T02:53:33.867Z,84.30
2018-08-23T02:56:03.545Z,84.50
2018-08-23T02:58:31.498Z,84.60
2018-08-23T03:01:03.830Z,84.10
2018-08-23T03:03:32.863Z,84.60
2018-08-23T03:06:01.387Z,84.90
2018-08-23T03:08:41.703Z,85.30
2018-08-23T03:11:10.036Z,85.10
2018-08-23T03:13:41.452Z,85.20
2018-08-23T03:16:09.399Z,86.10
2018-08-23T03:18:38.090Z,85.90
2018-08-23T03:21:07.244Z,86.00
2018-08-23T03:23:35.877Z,86.10
2018-08-23T03:26:03.802Z,86.40
2018-08-23T03:28:34.539Z,85.50
2018-08-23T03:31:03.179Z,85.50
2018-08-23T03:33:32.705Z,85.70
2018-08-23T03:36:01.757Z,85.80
2018-08-23T03:38:30.287Z,85.80
2018-08-23T03:40:58.176Z,85.70
2018-08-23T03:43:27.447Z,86.00
2018-08-23T03:45:58.440Z,86.20
2018-08-23T03:48:26.424Z,86.10
2018-08-23T03:50:54.327Z,86.30
2018-08-23T03:53:22.919Z,86.50
2018-08-23T03:56:05.829Z,86.80
2018-08-23T03:58:34.224Z,86.80
2018-08-23T04:01:03.413Z,86.90
2018-08-23T04:03:32.251Z,87.00
2018-08-23T04:06:17.140Z,86.80
2018-08-23T04:08:46.431Z,86.60
2018-08-23T04:11:14.633Z,86.50
2018-08-23T04:13:44.133Z,86.60
2018-08-23T04:16:12.682Z,87.30
2018-08-23T04:18:41.263Z,87.60
2018-08-23T04:21:09.143Z,87.80
2018-08-23T04:23:37.037Z,88.00
2018-08-23T04:26:04.948Z,88.00
2018-08-23T04:28:32.905Z,88.00
2018-08-23T04:31:00.781Z,88.40
2018-08-23T04:33:28.686Z,88.40
2018-08-23T04:35:57.519Z,88.20
2018-08-23T04:38:25.407Z,88.30
2018-08-23T04:41:04.008Z,88.50
2018-08-23T04:43:32.017Z,88.60
2018-08-23T04:46:09.370Z,88.60
2018-08-23T04:48:37.353Z,88.50
2018-08-23T04:51:05.282Z,88.30
2018-08-23T04:53:33.208Z,88.20
2018-08-23T04:56:01.095Z,88.10
2018-08-23T04:58:29.039Z,88.60
2018-08-23T05:00:56.942Z,88.80
2018-08-23T05:03:25.395Z,89.30
2018-08-23T05:05:53.284Z,89.40
2018-08-23T05:08:21.140Z,89.70
2018-08-23T05:10:49.696Z,89.90
2018-08-23T05:13:17.587Z,89.70
2018-08-23T05:15:45.647Z,89.60
2018-08-23T05:18:13.899Z,89.60
2018-08-23T05:20:42.405Z,89.30
2018-08-23T05:23:10.434Z,89.20
2018-08-23T05:25:38.213Z,88.90
2018-08-23T05:28:18.428Z,89.00
2018-08-23T05:30:47.743Z,88.80
2018-08-23T05:33:16.978Z,88.40
2018-08-23T05:35:45.227Z,88.00
2018-08-23T05:38:13.820Z,87.80
2018-08-23T05:40:44.835Z,88.20
2018-08-23T05:43:14.863Z,88.00
2018-08-23T05:45:49.094Z,87.90
2018-08-23T05:48:23.246Z,87.40
2018-08-23T05:50:51.592Z,87.50
2018-08-23T05:53:20.821Z,86.90
2018-08-23T05:55:53.573Z,86.40
2018-08-23T05:58:25.083Z,85.70
2018-08-23T06:00:53.169Z,85.20
2018-08-23T06:03:21.192Z,84.50
2018-08-23T06:05:50.263Z,83.50
2018-08-23T06:08:18.183Z,82.30
2018-08-23T06:10:47.987Z,81.30
2018-08-23T06:13:16.466Z,79.60
2018-08-23T06:15:50.463Z,80.20
2018-08-23T06:18:18.993Z,79.50
2018-08-23T06:20:47.848Z,78.60
2018-08-23T06:23:16.699Z,78.90
2018-08-23T06:25:46.076Z,78.20
2018-08-23T06:28:16.711Z,77.20
2018-08-23T06:30:45.100Z,76.70
2018-08-23T06:33:21.373Z,76.20
2018-08-23T06:35:49.027Z,74.40
2018-08-23T06:38:16.926Z,74.00
2018-08-23T06:40:44.806Z,72.50
2018-08-23T06:43:13.378Z,72.40
2018-08-23T06:45:42.553Z,71.60
2018-08-23T06:48:10.454Z,69.50
2018-08-23T06:50:43.541Z,70.00
2018-08-23T06:53:11.423Z,68.90
2018-08-23T06:55:39.329Z,66.60
2018-08-23T06:58:08.022Z,66.10
2018-08-23T07:00:36.541Z,65.60
2018-08-23T07:03:04.417Z,65.80
2018-08-23T07:05:32.247Z,65.90
2018-08-23T07:08:00.149Z,64.80
2018-08-23T07:10:28.052Z,63.90
2018-08-23T07:12:58.521Z,65.40
2018-08-23T07:15:26.469Z,65.00
2018-08-23T07:17:55.339Z,63.50
2018-08-23T07:20:23.232Z,63.00
2018-08-23T07:22:51.072Z,63.00
2018-08-23T07:25:19.259Z,62.80
2018-08-23T07:27:47.157Z,63.40
2018-08-23T07:30:17.771Z,62.70
2018-08-23T07:32:47.058Z,63.10
2018-08-23T07:35:17.236Z,62.30
2018-08-23T07:37:46.787Z,62.60
2018-08-23T07:40:16.092Z,62.60
2018-08-23T07:42:45.292Z,62.00
2018-08-23T07:45:14.207Z,61.30
2018-08-23T07:47:46.447Z,62.80
2018-08-23T07:50:15.055Z,62.70
2018-08-23T07:52:44.941Z,62.60
2018-08-23T07:55:12.895Z,61.90
2018-08-23T07:57:41.212Z,61.70
2018-08-23T08:00:34.954Z,59.90
2018-08-23T08:03:02.871Z,60.00
2018-08-23T08:05:32.983Z,60.70
2018-08-23T08:08:00.828Z,61.50
2018-08-23T08:10:32.293Z,60.00
2018-08-23T08:13:00.279Z,61.10
2018-08-23T08:15:28.282Z,60.30
2018-08-23T08:18:23.128Z,59.80
2018-08-23T08:21:01.029Z,59.50
2018-08-23T08:23:29.300Z,60.30
2018-08-23T08:25:58.128Z,59.30
2018-08-23T08:28:26.053Z,59.60
2018-08-23T08:31:00.468Z,59.30
2018-08-23T08:33:35.088Z,58.60
2018-08-23T08:36:03.896Z,58.80
2018-08-23T08:38:32.365Z,59.70
2018-08-23T08:41:00.327Z,58.40
2018-08-23T08:43:28.813Z,59.10
2018-08-23T08:45:58.315Z,59.20
2018-08-23T08:48:32.141Z,59.00
2018-08-23T08:51:23.359Z,57.60
2018-08-23T08:53:53.001Z,58.10
2018-08-23T08:56:27.082Z,58.40
2018-08-23T08:58:55.020Z,57.30
2018-08-23T09:01:23.941Z,56.90
2018-08-23T09:03:51.836Z,57.30
2018-08-23T09:06:22.629Z,56.30
2018-08-23T09:08:51.106Z,56.40
2018-08-23T09:11:21.232Z,55.80
2018-08-23T09:13:49.387Z,56.60
2018-08-23T09:16:20.753Z,56.40
2018-08-23T09:18:55.615Z,56.30
2018-08-23T09:21:23.555Z,57.00
2018-08-23T09:23:51.455Z,55.40
2018-08-23T09:26:19.415Z,54.90
2018-08-23T09:28:47.413Z,54.90
2018-08-23T09:31:15.557Z,54.40
2018-08-23T09:33:43.459Z,53.90
2018-08-23T09:36:11.363Z,54.40
2018-08-23T09:38:39.771Z,55.20
2018-08-23T09:41:08.296Z,53.20
2018-08-23T09:43:36.291Z,54.30
2018-08-23T09:46:04.508Z,53.80
2018-08-23T09:48:32.440Z,53.20
2018-08-23T09:51:00.459Z,53.50
2018-08-23T09:53:28.368Z,53.10
2018-08-23T09:55:56.793Z,53.30
2018-08-23T09:58:30.407Z,52.50
2018-08-23T10:01:04.611Z,52.50
2018-08-23T10:03:38.207Z,50.30
2018-08-23T10:06:11.688Z,50.20
2018-08-23T10:08:45.972Z,50.60
2018-08-23T10:11:21.525Z,50.00
2018-08-23T10:13:55.155Z,50.50
2018-08-23T10:16:28.666Z,50.10
2018-08-23T10:18:58.795Z,48.80
2018-08-23T10:21:32.294Z,48.40
2018-08-23T10:24:10.457Z,48.50
2018-08-23T10:26:38.431Z,48.60
2018-08-23T10:29:06.756Z,47.60
2018-08-23T10:31:35.308Z,48.40
2018-08-23T10:34:03.608Z,48.80
2018-08-23T10:36:31.507Z,47.60
2018-08-23T10:38:59.833Z,46.60
2018-08-23T10:41:28.425Z,46.70
2018-08-23T10:43:56.336Z,46.90
2018-08-23T10:46:24.233Z,46.30
2018-08-23T10:48:52.152Z,46.20
2018-08-23T10:51:20.025Z,46.10
2018-08-23T10:53:47.924Z,45.40
2018-08-23T10:56:15.819Z,45.70
2018-08-23T10:58:43.745Z,45.00
2018-08-23T11:01:11.646Z,44.40
2018-08-23T11:03:40.297Z,43.90
2018-08-23T11:06:08.363Z,44.40
2018-08-23T11:08:37.715Z,44.40
2018-08-23T11:11:11.433Z,44.10
2018-08-23T11:13:47.646Z,42.60
2018-08-23T11:16:21.405Z,42.30
2018-08-23T11:18:55.174Z,43.80
2018-08-23T11:21:23.222Z,43.50
2018-08-23T11:23:51.156Z,43.50
2018-08-23T11:26:20.648Z,43.90
2018-08-23T11:28:49.947Z,44.00
2018-08-23T11:31:23.627Z,44.40
2018-08-23T11:33:51.944Z,45.10
2018-08-23T11:36:20.496Z,45.20
2018-08-23T11:38:48.889Z,45.50
2018-08-23T11:41:17.908Z,44.30
2018-08-23T11:43:45.818Z,44.70
2018-08-23T11:46:15.037Z,44.50
2018-08-23T11:48:44.552Z,44.30
2018-08-23T11:51:14.129Z,49.40
2018-08-23T11:53:42.747Z,51.10
2018-08-23T11:56:10.841Z,52.20
2018-08-23T11:58:39.200Z,52.80
2018-08-23T12:01:09.432Z,53.20
2018-08-23T12:03:39.267Z,54.20
2018-08-23T12:06:11.187Z,57.10
2018-08-23T12:08:40.478Z,59.60
2018-08-23T12:11:09.186Z,63.30
2018-08-23T12:13:37.773Z,63.80
2018-08-23T12:16:08.918Z,64.50
2018-08-23T12:18:37.699Z,63.40
2018-08-23T12:21:06.172Z,60.10
2018-08-23T12:23:34.472Z,61.70
2018-08-23T12:26:03.314Z,59.30
2018-08-23T12:29:07.936Z,58.60
2018-08-23T12:31:36.182Z,59.50
2018-08-23T12:34:06.120Z,59.60
2018-08-23T12:36:39.651Z,59.60
2018-08-23T12:39:14.264Z,58.80
2018-08-23T12:41:48.328Z,57.80
2018-08-23T12:44:16.989Z,58.70
2018-08-23T12:46:44.940Z,56.90
2018-08-23T12:49:12.862Z,58.10
2018-08-23T12:51:40.747Z,57.70
2018-08-23T12:54:09.901Z,57.20
2018-08-23T12:56:38.512Z,56.60
2018-08-23T12:59:06.557Z,57.30
2018-08-23T13:01:34.609Z,57.50
2018-08-23T13:04:03.461Z,59.00
2018-08-23T13:06:31.403Z,59.80
2018-08-23T13:08:59.344Z,60.60
2018-08-23T13:11:27.251Z,59.20
2018-08-23T13:13:55.187Z,60.30
2018-08-23T13:16:23.053Z,59.50
2018-08-23T13:18:50.944Z,59.90
2018-08-23T13:21:19.230Z,58.30
2018-08-23T13:23:47.914Z,58.80
2018-08-23T13:26:15.821Z,58.00
2018-08-23T13:28:44.135Z,57.20
2018-08-23T13:31:13.018Z,54.60
2018-08-23T13:33:42.669Z,57.30
2018-08-23T13:36:10.585Z,57.30
2018-08-23T13:38:38.525Z,56.10
2018-08-23T13:41:06.480Z,55.10
2018-08-23T13:43:34.907Z,56.40
2018-08-23T13:46:02.847Z,54.30
2018-08-23T13:48:30.926Z,54.50
2018-08-23T13:50:58.724Z,53.60
2018-08-23T13:53:26.615Z,54.10
2018-08-23T13:55:54.599Z,54.00
2018-08-23T13:58:22.538Z,53.80
2018-08-23T14:00:50.416Z,52.30
2018-08-23T14:03:18.299Z,48.80
2018-08-23T14:05:46.674Z,47.90
2018-08-23T14:08:14.690Z,48.10
2018-08-23T14:10:42.599Z,47.00
2018-08-23T14:13:11.115Z,47.30
2018-08-23T14:15:44.551Z,46.60
2018-08-23T14:18:12.467Z,46.50
2018-08-23T14:20:40.409Z,44.20
2018-08-23T14:23:09.104Z,43.70
2018-08-23T14:25:37.965Z,42.20
2018-08-23T14:28:06.533Z,41.30
2018-08-23T14:30:34.646Z,41.70
2018-08-23T14:33:03.638Z,41.40
2018-08-23T14:35:32.235Z,40.90
2018-08-23T14:38:00.486Z,39.50
2018-08-23T14:40:28.439Z,40.50
2018-08-23T14:42:57.171Z,42.70
2018-08-23T14:45:29.085Z,39.70
2018-08-23T14:48:04.807Z,42.00
2018-08-23T14:50:34.079Z,43.70
2018-08-23T14:53:03.362Z,44.00
2018-08-23T14:55:37.005Z,42.40
2018-08-23T14:58:06.588Z,41.00
2018-08-23T15:00:35.339Z,41.20
2018-08-23T15:03:03.287Z,41.00
2018-08-23T15:05:31.256Z,40.40
2018-08-23T15:07:59.232Z,40.30
2018-08-23T15:10:27.143Z,39.90
2018-08-23T15:12:56.146Z,40.20
2018-08-23T15:15:29.676Z,40.50
2018-08-23T15:17:57.706Z,40.60
2018-08-23T15:20:26.537Z,41.00
2018-08-23T15:22:54.430Z,41.10
2018-08-23T15:25:22.266Z,41.50
2018-08-23T15:27:50.205Z,41.50
2018-08-23T15:30:18.165Z,41.40
2018-08-23T15:32:46.044Z,41.80
2018-08-23T15:35:13.995Z,42.10
2018-08-23T15:37:41.875Z,42.20
2018-08-23T15:40:09.788Z,42.50
2018-08-23T15:42:37.714Z,43.50
2018-08-23T15:45:06.092Z,44.50
2018-08-23T15:47:34.831Z,44.50
2018-08-23T15:50:02.777Z,44.80
2018-08-23T15:52:31.512Z,45.00
2018-08-23T15:54:59.493Z,44.40
2018-08-23T15:57:27.352Z,44.80
2018-08-23T15:59:55.274Z,45.60
2018-08-23T16:02:23.739Z,44.10
2018-08-23T16:04:52.581Z,43.80
2018-08-23T16:07:21.115Z,43.80
2018-08-23T16:09:49.857Z,43.90
2018-08-23T16:12:17.834Z,43.90
2018-08-23T16:14:45.690Z,44.80
2018-08-23T16:17:19.207Z,44.80
2018-08-23T16:19:53.421Z,45.00
2018-08-23T16:22:21.346Z,45.20
2018-08-23T16:24:49.309Z,45.20
2018-08-23T16:27:17.144Z,46.10
2018-08-23T16:29:50.739Z,45.90
2018-08-23T16:32:24.232Z,45.40
2018-08-23T16:34:52.499Z,46.30
2018-08-23T16:37:20.418Z,46.00
2018-08-23T16:39:48.370Z,47.20
2018-08-23T16:42:16.309Z,47.20
2018-08-23T16:44:44.216Z,46.30
2018-08-23T16:47:12.660Z,46.50
2018-08-23T16:49:40.584Z,46.40
2018-08-23T16:52:09.109Z,46.40
2018-08-23T16:54:37.814Z,47.20
2018-08-23T16:57:06.518Z,51.90
2018-08-23T16:59:34.947Z,52.20
2018-08-23T17:02:02.887Z,52.60
2018-08-23T17:04:36.471Z,52.60
2018-08-23T17:07:06.007Z,52.70
2018-08-23T17:09:33.970Z,53.40
2018-08-23T17:12:02.314Z,53.50
2018-08-23T17:14:30.219Z,54.60
2018-08-23T17:17:04.528Z,55.20
2018-08-23T17:19:32.433Z,55.60
2018-08-23T17:22:00.329Z,50.40
2018-08-23T17:24:28.368Z,49.90
2018-08-23T17:26:56.181Z,49.70
2018-08-23T17:29:24.309Z,50.20
2018-08-23T17:31:52.189Z,50.90
2018-08-23T17:34:20.075Z,50.70
2018-08-23T17:36:48.011Z,51.50
2018-08-23T17:39:15.958Z,50.60
2018-08-23T17:41:44.299Z,50.50
2018-08-23T17:44:12.237Z,50.70
2018-08-23T17:46:41.747Z,51.40
2018-08-23T17:49:09.690Z,53.10
2018-08-23T17:51:37.667Z,53.40
2018-08-23T17:54:05.781Z,54.20
2018-08-23T17:56:34.916Z,54.20
2018-08-23T17:59:02.863Z,55.20
2018-08-23T18:01:30.792Z,55.80
2018-08-23T18:03:58.649Z,57.20
2018-08-23T18:06:26.658Z,57.80
2018-08-23T18:08:54.588Z,57.50
2018-08-23T18:11:22.506Z,56.70
2018-08-23T18:13:50.427Z,55.60
2018-08-23T18:16:24.072Z,54.60
2018-08-23T18:18:51.990Z,56.40
2018-08-23T18:21:20.676Z,57.30
2018-08-23T18:23:49.427Z,57.00
2018-08-23T18:26:17.418Z,57.30
2018-08-23T18:28:45.903Z,58.10
2018-08-23T18:31:13.940Z,58.80
2018-08-23T18:33:41.856Z,59.50
2018-08-23T18:36:09.785Z,59.20
2018-08-23T18:38:37.772Z,59.40
2018-08-23T18:41:06.280Z,57.70
2018-08-23T18:43:35.115Z,56.30
2018-08-23T18:46:03.844Z,55.90
2018-08-23T18:48:31.977Z,56.00
2018-08-23T18:50:59.877Z,56.20
2018-08-23T18:53:27.813Z,56.30
2018-08-23T18:55:56.165Z,56.10
2018-08-23T18:58:24.104Z,56.10
2018-08-23T19:00:51.968Z,56.10
2018-08-23T19:03:19.897Z,59.70
2018-08-23T19:05:47.858Z,61.40
2018-08-23T19:08:15.932Z,65.30
2018-08-23T19:10:43.950Z,65.20
2018-08-23T19:13:11.894Z,65.50
2018-08-23T19:15:45.358Z,64.90
2018-08-23T19:18:13.314Z,64.20
2018-08-23T19:20:41.271Z,65.80
2018-08-23T19:23:09.178Z,65.50
2018-08-23T19:25:43.325Z,65.40
2018-08-23T19:28:12.149Z,65.00
2018-08-23T19:30:40.726Z,65.20
2018-08-23T19:33:08.657Z,65.60
2018-08-23T19:35:37.218Z,65.70
2018-08-23T19:38:05.342Z,66.00
2018-08-23T19:40:33.562Z,66.60
2018-08-23T19:43:01.862Z,67.20
2018-08-23T19:45:38.259Z,67.80
2018-08-23T19:48:06.859Z,65.80
2018-08-23T19:50:35.086Z,64.10
2018-08-23T19:53:03.041Z,64.50
2018-08-23T19:55:30.960Z,65.10
2018-08-23T19:57:58.896Z,66.50
2018-08-23T20:00:28.032Z,67.60
2018-08-23T20:02:55.864Z,67.90
2018-08-23T20:05:24.440Z,67.60
2018-08-23T20:07:52.434Z,68.10
2018-08-23T20:10:20.346Z,68.50
2018-08-23T20:12:49.602Z,69.70
2018-08-23T20:15:25.604Z,70.10
2018-08-23T20:17:54.758Z,70.00
2018-08-23T20:20:23.895Z,69.50
2018-08-23T20:22:52.161Z,69.50
2018-08-23T20:25:20.938Z,69.40
2018-08-23T20:27:49.019Z,69.10
2018-08-23T20:30:16.971Z,69.10
2018-08-23T20:32:44.881Z,69.10
2018-08-23T20:35:12.783Z,68.90
2018-08-23T20:37:40.740Z,69.10
2018-08-23T20:40:08.722Z,69.30
2018-08-23T20:42:37.938Z,69.20
2018-08-23T20:45:06.288Z,69.00
2018-08-23T20:47:34.204Z,69.90
2018-08-23T20:50:02.875Z,71.20
2018-08-23T20:52:31.313Z,70.40
2018-08-23T20:54:59.873Z,70.20
2018-08-23T20:57:28.387Z,70.80
2018-08-23T20:59:57.018Z,70.80
2018-08-23T21:02:25.041Z,70.90
2018-08-23T21:04:53.266Z,70.80
2018-08-23T21:07:21.779Z,70.50
2018-08-23T21:09:49.655Z,71.20
2018-08-23T21:12:17.607Z,71.70
2018-08-23T21:14:45.489Z,72.40
2018-08-23T21:17:13.445Z,72.90
2018-08-23T21:19:42.155Z,73.40
2018-08-23T21:22:10.103Z,73.30
2018-08-23T21:24:38.017Z,73.80
2018-08-23T21:27:06.032Z,73.80
2018-08-23T21:29:33.890Z,75.00
2018-08-23T21:32:01.915Z,77.30
2018-08-23T21:34:29.847Z,79.30
2018-08-23T21:36:58.923Z,80.60
2018-08-23T21:39:26.844Z,81.40
2018-08-23T21:41:54.741Z,81.70
2018-08-23T21:44:23.204Z,81.30
2018-08-23T21:46:51.168Z,81.10
2018-08-23T21:49:19.898Z,80.60
2018-08-23T21:51:47.838Z,80.20
2018-08-23T21:54:16.977Z,80.20
2018-08-23T21:56:44.915Z,79.90
2018-08-23T21:59:13.106Z,80.10
2018-08-23T22:01:41.125Z,81.50
2018-08-23T22:04:09.062Z,81.60
2018-08-23T22:06:37.006Z,81.70
2018-08-23T22:09:08.158Z,85.00
2018-08-23T22:11:36.211Z,85.10
2018-08-23T22:14:04.529Z,84.60
2018-08-23T22:16:32.485Z,84.50
2018-08-23T22:19:02.192Z,84.30
2018-08-23T22:21:31.428Z,83.20
2018-08-23T22:23:59.303Z,82.00
2018-08-23T22:26:28.075Z,81.60
2018-08-23T22:28:55.948Z,81.50
2018-08-23T22:31:23.927Z,81.40
2018-08-23T22:33:52.430Z,82.00
2018-08-23T22:36:20.651Z,82.10
2018-08-23T22:38:48.566Z,82.10
2018-08-23T22:41:16.439Z,81.60
2018-08-23T22:43:44.318Z,81.30
2018-08-23T22:46:12.216Z,81.00
2018-08-23T22:48:40.087Z,80.80
2018-08-23T22:51:08.027Z,80.90
2018-08-23T22:53:36.036Z,80.90
2018-08-23T22:56:03.972Z,80.70
2018-08-23T22:58:31.926Z,80.80
2018-08-23T23:00:59.862Z,80.80
2018-08-23T23:03:33.448Z,80.60
2018-08-23T23:06:01.988Z,81.20
2018-08-23T23:08:32.127Z,81.00
2018-08-23T23:11:00.022Z,80.90
2018-08-23T23:13:27.961Z,80.90
2018-08-23T23:15:55.871Z,80.60
2018-08-23T23:18:23.748Z,80.60
2018-08-23T23:20:52.073Z,80.90
2018-08-23T23:23:20.023Z,81.00
2018-08-23T23:25:47.955Z,80.60
2018-08-23T23:28:15.854Z,80.60
2018-08-23T23:30:43.739Z,80.60
2018-08-23T23:33:12.402Z,80.40
2018-08-23T23:35:40.992Z,80.70
2018-08-23T23:38:09.065Z,80.50
2018-08-23T23:40:36.965Z,80.40
2018-08-23T23:43:07.399Z,80.60
2018-08-23T23:45:35.309Z,81.10
2018-08-23T23:48:03.169Z,81.30
2018-08-23T23:50:31.032Z,81.00
2018-08-23T23:52:58.893Z,80.80
2018-08-23T23:55:27.285Z,80.80
2018-08-23T23:57:55.724Z,80.80
